KGSP/GSP METAR and TAF weather

Enter ICAO airport designator
Station Type Date Time Source
KGSP METAR 2021/04/13 21:53 UTC NOAA

KGSP 132153Z 00000KT 10SM CLR 26/05 A3005 RMK AO2 SLP167 T02610050


Station Type Date Time Source
KGSP Decoded METAR 2021/04/13 21:53 UTC NOAA

GREER GREENVILLE SPARTBURG, SC, United States (KGSP) 34-53N 82-13W 286M
Apr 13, 2021 - 05:53 PM EDT / 2021.04.13 2153 UTC
Wind: Calm:0
Visibility: 10 mile(s):0
Sky conditions: clear
Temperature: 79.0 F (26.1 C)
Dew Point: 41.0 F (5.0 C)
Relative Humidity: 25%
Pressure (altimeter): 30.05 in. Hg (1017 hPa)
ob: KGSP 132153Z 00000KT 10SM CLR 26/05 A3005 RMK AO2 SLP167 T02610050
cycle: 22

Station Type Date Time Source
KGSP TAF 2021/04/13 18:30 UTC NOAA

TAF KGSP 131726Z 1318/1418 VRB02KT P6SM SCT250
FM132100 22004KT P6SM BKN200
FM140600 VRB03KT P6SM SCT250
FM141300 20003KT P6SM FEW250

Example: see airport list